createdAt,value
2022-09-23T00:01:20.813Z,97224.00
2022-09-23T00:03:52.549Z,97206.25
2022-09-23T00:06:23.942Z,97222.84
2022-09-23T00:08:52.997Z,97211.31
2022-09-23T00:11:25.635Z,97220.16
2022-09-23T00:13:59.038Z,97216.72
2022-09-23T00:16:31.347Z,97215.59
2022-09-23T00:18:58.114Z,97215.19
2022-09-23T00:21:25.299Z,97216.41
2022-09-23T00:23:52.333Z,97216.75
2022-09-23T00:26:23.280Z,97212.53
2022-09-23T00:28:50.796Z,97213.72
2022-09-23T00:31:23.336Z,97209.88
2022-09-23T00:33:57.588Z,97210.63
2022-09-23T00:36:25.191Z,97207.19
2022-09-23T00:38:55.210Z,97225.38
2022-09-23T00:41:22.077Z,97224.19
2022-09-23T00:43:58.110Z,97211.53
2022-09-23T00:46:43.473Z,97217.69
2022-09-23T00:49:18.689Z,97212.25
2022-09-23T00:51:54.294Z,97214.22
2022-09-23T00:54:27.964Z,97208.81
2022-09-23T00:56:55.641Z,97202.25
2022-09-23T00:59:24.423Z,97197.31
2022-09-23T01:01:54.892Z,97197.34
2022-09-23T01:04:26.490Z,97203.47
2022-09-23T01:06:55.874Z,97198.13
2022-09-23T01:09:25.664Z,97189.69
2022-09-23T01:12:04.511Z,97204.72
2022-09-23T01:14:53.025Z,97198.16
2022-09-23T01:17:32.763Z,97198.53
2022-09-23T01:20:44.826Z,97196.59
2022-09-23T01:23:48.946Z,97197.75
2022-09-23T01:26:27.656Z,97196.59
2022-09-23T01:29:15.174Z,97197.41
2022-09-23T01:32:00.290Z,97197.03
2022-09-23T01:34:48.535Z,97194.31
2022-09-23T01:37:28.718Z,97194.31
2022-09-23T01:40:07.167Z,97176.25
2022-09-23T01:42:39.643Z,97194.72
2022-09-23T01:45:17.519Z,97190.88
2022-09-23T01:47:56.060Z,97190.56
2022-09-23T01:50:48.307Z,97195.66
2022-09-23T01:53:38.875Z,97201.44
2022-09-23T01:56:12.201Z,97194.50
2022-09-23T01:58:48.861Z,97201.41
2022-09-23T02:01:21.890Z,97199.06
2022-09-23T02:03:55.875Z,97200.63
2022-09-23T02:06:28.292Z,97190.63
2022-09-23T02:09:02.413Z,97189.06
2022-09-23T02:11:36.389Z,97184.03
2022-09-23T02:14:11.769Z,97187.50
2022-09-23T02:16:44.787Z,97178.66
2022-09-23T02:19:15.554Z,97196.00
2022-09-23T02:21:47.526Z,97204.09
2022-09-23T02:24:20.948Z,97199.09
2022-09-23T02:26:54.562Z,97208.34
2022-09-23T02:29:45.312Z,97201.78
2022-09-23T02:32:23.139Z,97199.13
2022-09-23T02:35:15.631Z,97203.75
2022-09-23T02:37:54.821Z,97196.03
2022-09-23T02:40:31.099Z,97197.22
2022-09-23T02:43:22.539Z,97202.22
2022-09-23T02:45:50.169Z,97188.75
2022-09-23T02:48:24.476Z,97198.75
2022-09-23T02:50:51.009Z,97193.75
2022-09-23T02:53:22.489Z,97192.97
2022-09-23T02:55:50.185Z,97185.25
2022-09-23T02:58:17.371Z,97187.59
2022-09-23T03:00:46.205Z,97197.22
2022-09-23T03:03:33.615Z,97181.81
2022-09-23T03:06:10.798Z,97179.50
2022-09-23T03:08:58.241Z,97189.53
2022-09-23T03:11:27.340Z,97192.22
2022-09-23T03:14:22.480Z,97191.88
2022-09-23T03:16:55.927Z,97192.25
2022-09-23T03:19:42.741Z,97184.53
2022-09-23T03:22:18.671Z,97177.25
2022-09-23T03:24:53.767Z,97185.31
2022-09-23T03:27:28.556Z,97176.84
2022-09-23T03:29:56.400Z,97193.41
2022-09-23T03:32:28.170Z,97188.75
2022-09-23T03:34:58.552Z,97189.91
2022-09-23T03:37:35.758Z,97185.69
2022-09-23T03:40:43.616Z,97182.97
2022-09-23T03:43:14.115Z,97183.41
2022-09-23T03:45:43.437Z,97176.47
2022-09-23T03:48:13.771Z,97184.56
2022-09-23T03:50:40.468Z,97177.22
2022-09-23T03:53:09.541Z,97173.38
2022-09-23T03:55:39.421Z,97181.81
2022-09-23T03:58:08.045Z,97183.00
2022-09-23T04:00:37.076Z,97183.78
2022-09-23T04:03:10.907Z,97179.56
2022-09-23T04:05:41.670Z,97175.28
2022-09-23T04:08:08.203Z,97185.72
2022-09-23T04:10:34.734Z,97175.34
2022-09-23T04:13:01.649Z,97183.44
2022-09-23T04:15:28.554Z,97184.59
2022-09-23T04:17:55.130Z,97179.97
2022-09-23T04:20:24.186Z,97185.34
2022-09-23T04:22:55.525Z,97183.44
2022-09-23T04:25:22.322Z,97197.28
2022-09-23T04:27:48.878Z,97178.41
2022-09-23T04:30:15.563Z,97191.91
2022-09-23T04:32:44.475Z,97184.22
2022-09-23T04:35:11.107Z,97186.13
2022-09-23T04:37:37.644Z,97189.63
2022-09-23T04:40:12.146Z,97192.69
2022-09-23T04:42:41.586Z,97197.69
2022-09-23T04:45:08.477Z,97191.53
2022-09-23T04:47:35.017Z,97159.19
2022-09-23T04:50:04.254Z,97191.91
2022-09-23T04:52:35.716Z,97183.44
2022-09-23T04:55:02.457Z,97188.06
2022-09-23T04:57:31.279Z,97200.00
2022-09-23T04:59:58.053Z,97185.38
2022-09-23T05:02:25.013Z,97193.84
2022-09-23T05:04:53.875Z,97182.28
2022-09-23T05:07:20.504Z,97193.84
2022-09-23T05:09:47.302Z,97193.06
2022-09-23T05:12:16.985Z,97205.41
2022-09-23T05:14:43.580Z,97194.63
2022-09-23T05:17:15.548Z,97201.94
2022-09-23T05:19:42.539Z,97201.56
2022-09-23T05:22:09.067Z,97210.38
2022-09-23T05:24:35.600Z,97202.72
2022-09-23T05:27:07.315Z,97186.13
2022-09-23T05:29:35.042Z,97207.31
2022-09-23T05:32:04.766Z,97205.00
2022-09-23T05:34:32.682Z,97202.31
2022-09-23T05:37:04.488Z,97194.56
2022-09-23T05:39:33.355Z,97197.63
2022-09-23T05:42:02.132Z,97200.69
2022-09-23T05:44:28.644Z,97214.19
2022-09-23T05:46:55.258Z,97197.22
2022-09-23T05:49:33.015Z,97208.78
2022-09-23T05:52:10.761Z,97207.56
2022-09-23T05:54:37.926Z,97206.38
2022-09-23T05:57:06.823Z,97203.66
2022-09-23T05:59:36.066Z,97214.81
2022-09-23T06:02:02.673Z,97209.06
2022-09-23T06:04:29.327Z,97209.75
2022-09-23T06:07:00.273Z,97213.19
2022-09-23T06:09:36.314Z,97220.84
2022-09-23T06:12:03.644Z,97219.63
2022-09-23T06:14:32.711Z,97214.13
2022-09-23T06:17:01.765Z,97213.72
2022-09-23T06:19:28.306Z,97205.53
2022-09-23T06:21:58.161Z,97217.09
2022-09-23T06:24:30.805Z,97218.16
2022-09-23T06:26:57.964Z,97215.38
2022-09-23T06:29:26.705Z,97218.09
2022-09-23T06:31:55.952Z,97211.97
2022-09-23T06:34:22.607Z,97225.72
2022-09-23T06:36:53.871Z,97221.84
2022-09-23T06:39:20.477Z,97211.81
2022-09-23T06:41:47.066Z,97226.88
2022-09-23T06:44:16.045Z,97220.94
2022-09-23T06:46:43.203Z,97225.06
2022-09-23T06:49:10.643Z,97213.56
2022-09-23T06:51:37.205Z,97227.88
2022-09-23T06:54:06.243Z,97230.44
2022-09-23T06:56:39.118Z,97236.47
2022-09-23T06:59:09.278Z,97227.97
2022-09-23T07:01:38.630Z,97235.09
2022-09-23T07:04:05.897Z,97224.97
2022-09-23T07:06:32.621Z,97230.66
2022-09-23T07:08:59.218Z,97235.97
2022-09-23T07:11:27.045Z,97229.78
2022-09-23T07:13:53.891Z,97232.47
2022-09-23T07:16:21.356Z,97234.00
2022-09-23T07:18:50.195Z,97237.09
2022-09-23T07:21:18.795Z,97234.59
2022-09-23T07:23:47.810Z,97229.97
2022-09-23T07:26:18.128Z,97238.41
2022-09-23T07:28:47.608Z,97226.81
2022-09-23T07:31:33.175Z,97234.81
2022-09-23T07:34:03.385Z,97217.75
2022-09-23T07:36:32.890Z,97229.78
2022-09-23T07:39:03.516Z,97231.75
2022-09-23T07:41:32.211Z,97229.81
2022-09-23T07:44:00.535Z,97243.91
2022-09-23T07:46:30.694Z,97239.56
2022-09-23T07:48:57.489Z,97235.16
2022-09-23T07:51:35.453Z,97230.00
2022-09-23T07:54:02.848Z,97234.94
2022-09-23T07:56:32.384Z,97227.66
2022-09-23T07:59:04.560Z,97231.00
2022-09-23T08:01:40.029Z,97228.72
2022-09-23T08:04:17.158Z,97232.06
2022-09-23T08:06:45.681Z,97227.72
2022-09-23T08:09:15.787Z,97228.63
2022-09-23T08:11:42.450Z,97226.75
2022-09-23T08:14:14.363Z,97233.31
2022-09-23T08:16:42.309Z,97233.38
2022-09-23T08:19:09.222Z,97234.00
2022-09-23T08:21:37.659Z,97234.69
2022-09-23T08:24:04.249Z,97237.41
2022-09-23T08:26:34.650Z,97225.75
2022-09-23T08:29:03.676Z,97237.41
2022-09-23T08:31:33.244Z,97226.97
2022-09-23T08:34:04.529Z,97231.72
2022-09-23T08:36:31.358Z,97229.63
2022-09-23T08:38:57.981Z,97231.66
2022-09-23T08:41:36.456Z,97236.50
2022-09-23T08:44:11.239Z,97217.38
2022-09-23T08:46:46.733Z,97220.78
2022-09-23T08:49:20.078Z,97214.47
2022-09-23T08:51:48.483Z,97212.91
2022-09-23T08:54:20.911Z,97218.09
2022-09-23T08:56:58.652Z,97217.16
2022-09-23T08:59:44.500Z,97225.22
2022-09-23T09:02:30.567Z,97215.09
2022-09-23T09:05:03.746Z,97219.00
2022-09-23T09:07:37.701Z,97220.31
2022-09-23T09:10:21.463Z,97213.97
2022-09-23T09:13:01.730Z,97212.41
2022-09-23T09:15:28.713Z,97204.66
2022-09-23T09:18:03.758Z,97203.91
2022-09-23T09:20:57.218Z,97196.06
2022-09-23T09:23:32.830Z,97200.47
2022-09-23T09:26:02.505Z,97193.19
2022-09-23T09:28:49.351Z,97195.84
2022-09-23T09:31:39.891Z,97192.31
2022-09-23T09:34:06.433Z,97183.50
2022-09-23T09:36:57.844Z,97158.28
2022-09-23T09:39:27.584Z,97171.16
2022-09-23T09:41:59.683Z,97166.34
2022-09-23T09:44:37.143Z,97167.34
2022-09-23T09:47:47.393Z,97163.16
2022-09-23T09:50:38.547Z,97157.00
2022-09-23T09:53:21.867Z,97155.94
2022-09-23T09:56:13.467Z,97148.41
2022-09-23T09:58:50.586Z,97158.94
2022-09-23T10:01:24.962Z,97151.50
2022-09-23T10:03:57.056Z,97150.28
2022-09-23T10:06:29.911Z,97144.00
2022-09-23T10:09:08.770Z,97136.06
2022-09-23T10:11:38.779Z,97133.94
2022-09-23T10:14:12.415Z,97140.16
2022-09-23T10:16:43.888Z,97133.69
2022-09-23T10:19:26.976Z,97127.63
2022-09-23T10:21:56.976Z,97139.97
2022-09-23T10:24:37.106Z,97131.50
2022-09-23T10:27:12.964Z,97114.75
2022-09-23T10:29:50.968Z,97122.72
2022-09-23T10:32:29.144Z,97120.25
2022-09-23T10:35:02.216Z,97116.94
2022-09-23T10:37:34.864Z,97117.00
2022-09-23T10:40:44.818Z,97103.94
2022-09-23T10:43:36.962Z,97108.03
2022-09-23T10:46:26.863Z,97088.56
2022-09-23T10:48:53.496Z,97108.34
2022-09-23T10:51:54.190Z,97099.81
2022-09-23T10:54:31.737Z,97106.81
2022-09-23T10:57:25.173Z,97096.50
2022-09-23T10:59:56.006Z,97100.31
2022-09-23T11:02:41.214Z,97094.66
2022-09-23T11:05:26.830Z,97099.25
2022-09-23T11:08:28.946Z,97098.81
2022-09-23T11:11:34.160Z,97093.94
2022-09-23T11:14:27.826Z,97080.09
2022-09-23T11:17:25.988Z,97074.28
2022-09-23T11:20:05.316Z,97059.97
2022-09-23T11:22:50.716Z,97070.63
2022-09-23T11:25:28.308Z,97069.13
2022-09-23T11:28:03.921Z,97061.75
2022-09-23T11:30:49.955Z,97059.78
2022-09-23T11:33:36.880Z,97060.06
2022-09-23T11:36:18.517Z,97059.25
2022-09-23T11:38:48.507Z,97055.91
2022-09-23T11:41:43.274Z,97044.94
2022-09-23T11:44:21.037Z,97034.34
2022-09-23T11:46:58.549Z,97033.47
2022-09-23T11:49:39.278Z,97036.59
2022-09-23T11:52:33.420Z,97025.28
2022-09-23T11:55:15.631Z,97023.34
2022-09-23T11:57:52.607Z,97013.78
2022-09-23T12:00:24.449Z,97008.06
2022-09-23T12:03:05.478Z,97009.66
2022-09-23T12:06:05.510Z,97006.47
2022-09-23T12:08:39.410Z,97001.81
2022-09-23T12:11:20.351Z,96995.03
2022-09-23T12:13:55.528Z,96999.22
2022-09-23T12:16:42.885Z,96997.59
2022-09-23T12:19:36.946Z,96990.19
2022-09-23T12:22:26.686Z,96981.97
2022-09-23T12:25:30.844Z,96979.34
2022-09-23T12:28:06.710Z,96969.88
2022-09-23T12:30:38.258Z,96968.84
2022-09-23T12:33:32.789Z,96958.03
2022-09-23T12:36:05.022Z,96957.94
2022-09-23T12:38:52.081Z,96954.41
2022-09-23T12:41:27.024Z,96953.59
2022-09-23T12:44:14.445Z,96954.41
2022-09-23T12:46:46.004Z,96953.38
2022-09-23T12:49:26.662Z,96952.69
2022-09-23T12:52:12.035Z,96945.13
2022-09-23T12:54:40.151Z,96932.59
2022-09-23T12:57:12.383Z,96932.88
2022-09-23T12:59:54.060Z,96931.06
2022-09-23T13:02:28.654Z,96937.69
2022-09-23T13:05:38.179Z,96928.03
2022-09-23T13:08:09.383Z,96921.41
2022-09-23T13:11:02.865Z,96921.50
2022-09-23T13:13:34.497Z,96915.78
2022-09-23T13:16:14.072Z,96921.72
2022-09-23T13:18:51.012Z,96908.53
2022-09-23T13:21:39.403Z,96909.47
2022-09-23T13:24:25.406Z,96907.53
2022-09-23T13:27:12.873Z,96895.44
2022-09-23T13:30:04.229Z,96892.81
2022-09-23T13:32:44.248Z,96885.84
2022-09-23T13:35:15.996Z,96881.81
2022-09-23T13:37:51.445Z,96888.41
2022-09-23T13:40:20.199Z,96884.91
2022-09-23T13:43:03.653Z,96888.22
2022-09-23T13:45:31.484Z,96885.44
2022-09-23T13:48:07.600Z,96890.75
2022-09-23T13:50:38.599Z,96879.66
2022-09-23T13:53:11.956Z,96878.16
2022-09-23T13:55:40.026Z,96872.50
2022-09-23T13:58:23.923Z,96865.69
2022-09-23T14:00:51.716Z,96872.78
2022-09-23T14:03:25.131Z,96867.53
2022-09-23T14:05:53.020Z,96868.56
2022-09-23T14:08:20.329Z,96859.38
2022-09-23T14:10:47.871Z,96856.94
2022-09-23T14:13:25.940Z,96847.97
2022-09-23T14:15:55.241Z,96851.69
2022-09-23T14:18:46.785Z,96848.03
2022-09-23T14:21:40.259Z,96850.69
2022-09-23T14:24:19.308Z,96846.13
2022-09-23T14:26:54.634Z,96844.00
2022-09-23T14:29:28.333Z,96842.44
2022-09-23T14:32:04.124Z,96849.78
2022-09-23T14:34:42.772Z,96851.59
2022-09-23T14:37:37.096Z,96838.19
2022-09-23T14:40:12.451Z,96832.97
2022-09-23T14:42:44.522Z,96842.78
2022-09-23T14:45:19.636Z,96841.72
2022-09-23T14:47:54.756Z,96843.81
2022-09-23T14:50:40.524Z,96843.00
2022-09-23T14:53:35.130Z,96838.31
2022-09-23T14:56:07.776Z,96834.91
2022-09-23T14:58:55.543Z,96839.78
2022-09-23T15:01:31.451Z,96829.94
2022-09-23T15:04:22.936Z,96830.16
2022-09-23T15:07:01.410Z,96820.94
2022-09-23T15:09:32.979Z,96828.38
2022-09-23T15:12:02.365Z,96829.44
2022-09-23T15:14:38.254Z,96822.00
2022-09-23T15:17:16.769Z,96815.72
2022-09-23T15:19:43.703Z,96813.31
2022-09-23T15:22:13.333Z,96815.34
2022-09-23T15:24:50.013Z,96807.81
2022-09-23T15:27:35.297Z,96815.34
2022-09-23T15:30:17.673Z,96813.22
2022-09-23T15:32:47.297Z,96813.22
2022-09-23T15:35:21.483Z,96806.66
2022-09-23T15:37:50.732Z,96814.91
2022-09-23T15:40:21.105Z,96817.88
2022-09-23T15:42:52.569Z,96810.09
2022-09-23T15:45:26.283Z,96817.50
2022-09-23T15:48:53.160Z,96812.84
2022-09-23T15:51:23.161Z,96812.09
2022-09-23T15:54:34.931Z,96813.16
2022-09-23T15:57:02.220Z,96742.56
2022-09-23T15:59:31.019Z,96816.38
2022-09-23T16:02:05.773Z,96814.66
2022-09-23T16:04:32.428Z,96815.50
2022-09-23T16:06:59.144Z,96815.22
2022-09-23T16:09:28.255Z,96815.03
2022-09-23T16:11:55.242Z,96807.75
2022-09-23T16:14:21.874Z,96810.88
2022-09-23T16:16:51.073Z,96814.19
2022-09-23T16:19:17.824Z,96806.50
2022-09-23T16:21:44.870Z,96812.19
2022-09-23T16:24:17.610Z,96815.59
2022-09-23T16:26:46.587Z,96815.59
2022-09-23T16:29:15.581Z,96812.00
2022-09-23T16:31:44.633Z,96807.97
2022-09-23T16:34:13.428Z,96804.34
2022-09-23T16:36:45.938Z,96811.53
2022-09-23T16:39:13.764Z,96815.50
2022-09-23T16:41:41.154Z,96805.72
2022-09-23T16:44:10.801Z,96817.63
2022-09-23T16:46:42.862Z,96808.53
2022-09-23T16:49:12.152Z,96811.53
2022-09-23T16:51:38.945Z,96815.69
2022-09-23T16:54:10.325Z,96812.59
2022-09-23T16:56:41.711Z,96818.22
2022-09-23T16:59:08.345Z,96817.56
2022-09-23T17:01:56.175Z,96818.78
2022-09-23T17:04:23.199Z,96814.53
2022-09-23T17:06:53.461Z,96825.41
2022-09-23T17:09:22.430Z,96823.31
2022-09-23T17:12:07.778Z,96801.13
2022-09-23T17:14:34.708Z,96824.13
2022-09-23T17:17:01.304Z,96811.44
2022-09-23T17:19:30.769Z,96819.63
2022-09-23T17:21:57.291Z,96807.97
2022-09-23T17:24:23.836Z,96816.94
2022-09-23T17:26:53.435Z,96825.03
2022-09-23T17:29:22.507Z,96817.28
2022-09-23T17:32:03.728Z,96822.47
2022-09-23T17:34:31.868Z,96814.84
2022-09-23T17:36:58.389Z,96839.19
2022-09-23T17:39:27.327Z,96829.00
2022-09-23T17:41:58.612Z,96830.69
2022-09-23T17:44:27.926Z,96825.50
2022-09-23T17:46:58.547Z,96838.91
2022-09-23T17:49:25.094Z,96827.34
2022-09-23T17:51:51.743Z,96831.28
2022-09-23T17:54:23.388Z,96837.66
2022-09-23T17:56:49.962Z,96837.22
2022-09-23T17:59:16.576Z,96844.34
2022-09-23T18:01:46.237Z,96830.06
2022-09-23T18:04:12.857Z,96831.44
2022-09-23T18:06:42.184Z,96825.78
2022-09-23T18:09:10.102Z,96828.84
2022-09-23T18:11:39.275Z,96832.50
2022-09-23T18:14:14.054Z,96839.63
2022-09-23T18:16:42.026Z,96832.81
2022-09-23T18:19:14.954Z,96828.06
2022-09-23T18:21:56.128Z,96820.91
2022-09-23T18:24:38.935Z,96814.66
2022-09-23T18:27:08.302Z,96826.66
2022-09-23T18:29:35.212Z,96831.19
2022-09-23T18:32:04.452Z,96826.63
2022-09-23T18:34:31.047Z,96836.50
2022-09-23T18:37:02.767Z,96829.63
2022-09-23T18:39:29.328Z,96836.50
2022-09-23T18:41:55.930Z,96838.75
2022-09-23T18:44:23.855Z,96830.25
2022-09-23T18:46:50.411Z,96828.84
2022-09-23T18:49:35.214Z,96828.72
2022-09-23T18:52:04.655Z,96826.13
2022-09-23T18:54:33.497Z,96821.28
2022-09-23T18:57:00.167Z,96834.50
2022-09-23T18:59:33.661Z,96840.41
2022-09-23T19:02:00.400Z,96837.06
2022-09-23T19:04:27.642Z,96832.19
2022-09-23T19:06:56.669Z,96831.88
2022-09-23T19:09:30.775Z,96829.13
2022-09-23T19:11:57.957Z,96833.34
2022-09-23T19:14:24.659Z,96830.25
2022-09-23T19:16:53.752Z,96829.22
2022-09-23T19:19:20.352Z,96841.03
2022-09-23T19:21:49.388Z,96827.84
2022-09-23T19:24:19.880Z,96827.38
2022-09-23T19:26:46.649Z,96827.69
2022-09-23T19:29:19.495Z,96830.75
2022-09-23T19:31:48.876Z,96813.13
2022-09-23T19:34:22.716Z,96823.59
2022-09-23T19:36:49.375Z,96818.81
2022-09-23T19:39:23.811Z,96823.22
2022-09-23T19:41:52.814Z,96802.56
2022-09-23T19:44:20.220Z,96808.50
2022-09-23T19:46:53.551Z,96811.22
2022-09-23T19:49:24.600Z,96803.16
2022-09-23T19:51:55.957Z,96808.78
2022-09-23T19:54:27.463Z,96812.06
2022-09-23T19:56:56.933Z,96803.88
2022-09-23T19:59:23.554Z,96809.16
2022-09-23T20:01:50.277Z,96816.72
2022-09-23T20:04:20.785Z,96815.63
2022-09-23T20:06:49.684Z,96807.31
2022-09-23T20:09:16.309Z,96806.81
2022-09-23T20:11:43.044Z,96820.13
2022-09-23T20:14:15.641Z,96811.38
2022-09-23T20:16:45.620Z,96822.28
2022-09-23T20:19:14.458Z,96825.16
2022-09-23T20:21:43.254Z,96820.56
2022-09-23T20:24:14.859Z,96810.59
2022-09-23T20:27:02.240Z,96799.06
2022-09-23T20:29:28.913Z,96799.13
2022-09-23T20:31:57.015Z,96818.28
2022-09-23T20:34:23.901Z,96812.97
2022-09-23T20:36:50.429Z,96811.44
2022-09-23T20:39:19.185Z,96789.84
2022-09-23T20:41:46.127Z,96802.81
2022-09-23T20:44:13.057Z,96800.00
2022-09-23T20:46:50.048Z,96806.69
2022-09-23T20:49:20.883Z,96810.91
2022-09-23T20:51:48.799Z,96817.25
2022-09-23T20:54:20.194Z,96810.28
2022-09-23T20:56:48.018Z,96825.94
2022-09-23T20:59:15.035Z,96820.63
2022-09-23T21:01:45.786Z,96825.84
2022-09-23T21:04:12.608Z,96828.09
2022-09-23T21:06:41.808Z,96837.81
2022-09-23T21:09:10.588Z,96825.94
2022-09-23T21:11:38.035Z,96830.09
2022-09-23T21:14:07.046Z,96829.94
2022-09-23T21:16:38.767Z,96825.25
2022-09-23T21:19:08.065Z,96817.66
2022-09-23T21:21:37.630Z,96828.09
2022-09-23T21:24:31.291Z,96822.13
2022-09-23T21:26:51.018Z,96824.44
2022-09-23T21:29:18.110Z,96824.34
2022-09-23T21:31:45.346Z,96822.72
2022-09-23T21:34:12.695Z,96817.47
2022-09-23T21:36:48.094Z,96817.81
2022-09-23T21:39:17.640Z,96812.94
2022-09-23T21:41:46.680Z,96794.00
2022-09-23T21:44:16.004Z,96811.00
2022-09-23T21:46:45.827Z,96813.50
2022-09-23T21:49:16.945Z,96806.66
2022-09-23T21:51:45.781Z,96810.91
2022-09-23T21:54:17.163Z,96807.31
2022-09-23T21:56:44.269Z,96811.25
2022-09-23T21:59:15.597Z,96808.50
2022-09-23T22:01:44.959Z,96812.44
2022-09-23T22:04:17.908Z,96800.56
2022-09-23T22:06:49.038Z,96806.75
2022-09-23T22:09:18.853Z,96807.22
2022-09-23T22:12:04.804Z,96813.97
2022-09-23T22:14:33.813Z,96807.34
2022-09-23T22:17:05.339Z,96802.13
2022-09-23T22:19:40.322Z,96813.31
2022-09-23T22:22:17.411Z,96806.72
2022-09-23T22:24:46.201Z,96812.03
2022-09-23T22:27:17.749Z,96810.41
2022-09-23T22:30:02.704Z,96807.34
2022-09-23T22:32:41.127Z,96803.31
2022-09-23T22:35:16.708Z,96809.84
2022-09-23T22:37:48.639Z,96813.78
2022-09-23T22:40:17.826Z,96809.41
2022-09-23T22:42:47.424Z,96805.16
2022-09-23T22:45:16.571Z,96801.91
2022-09-23T22:47:46.029Z,96809.88
2022-09-23T22:50:16.593Z,96817.03
2022-09-23T22:52:43.189Z,96808.44
2022-09-23T22:55:10.628Z,96814.97
2022-09-23T22:57:39.390Z,96807.25
2022-09-23T23:00:10.437Z,96807.25
2022-09-23T23:02:40.010Z,96792.63
2022-09-23T23:05:08.522Z,96804.28
2022-09-23T23:07:36.214Z,96804.28
2022-09-23T23:10:03.983Z,96792.34
2022-09-23T23:12:30.508Z,96794.41
2022-09-23T23:14:59.277Z,96795.06
2022-09-23T23:17:25.955Z,96790.38
2022-09-23T23:19:55.342Z,96781.75
2022-09-23T23:22:24.161Z,96776.84
2022-09-23T23:24:52.686Z,96770.19
2022-09-23T23:27:21.463Z,96773.97
2022-09-23T23:29:48.070Z,96767.25
2022-09-23T23:32:17.247Z,96773.78
2022-09-23T23:34:43.864Z,96780.22
2022-09-23T23:37:10.535Z,96766.84
2022-09-23T23:39:39.918Z,96776.19
2022-09-23T23:42:06.515Z,96776.72
2022-09-23T23:44:35.366Z,96775.06
2022-09-23T23:47:02.135Z,96777.69
2022-09-23T23:49:28.893Z,96789.97
2022-09-23T23:51:57.942Z,96785.88
2022-09-23T23:54:24.890Z,96791.50
2022-09-23T23:56:53.730Z,96789.88
2022-09-23T23:59:20.880Z,96787.25
